Vershire, Vermont
Current Conditions -  °F | °C
As of 9:51 AM on Friday 28 Nov 2014 (Local Time) from KMPV Reporting Station
Overcast Overcast  
Wind Chill: 20°   Ceiling: 2900
Heat Index: 20°   Visibility: 10mi
Dew Point: 16°   Wind: 3mph
Humidity: 85%   Direction: 320°NW
Pressure: 30.08"   Gusts: NA
Location:  43.97°N, 72.32°W
Report Text: KMPV 281451Z AUTO 32003KT 10SM BKN029 OVC035 M07/M09 A3008 RMK AO2 SNE29 SLP207 P0000 60000 T10671089 53010
Loading
Personal Weather Stations






























Interactive Weather Map New forecast layout! Learn more

10-Day Weather Forecast

Advertisements
Track Severe Weather on mobile